PWSweather.com
Personal Weather Stations
Station Observations
KCTHAMDEN
Dunbar Hill, Hamden, CT 06514

Dunbar HillHamden, CT 06514

Lat: 41.365437, Lon: -72.956532

Elevation: 200

Station Type: Davis Vantage Pro2+

www.hamdenweather.com

High Low Average
Temperature 89.7°F32.1°C 74.0°F23.3°C 80.7°F27.1°C
Dew Point 79.0°F26.1°C 72.8°F22.7°C 75.1°F23.9°C
Winds 5.0 mph 8.0 kmh Calm Calm 1.0 mph SSE1.6 kmh SSE
Wind Gusts 15.0 mph24.1 kmh -- 2.0 mph3.2 kmh
Humidity 97% 64% 84%
Pressure 30.14 in1020.7 mb 30.02 in1016.6 mb -
Precipitation 0.00 in0.0 mm - -
Hour Temp Dew Point Humidity Winds Wind Gusts Pressure Precip Precip Rate Daily Precip Total
12:00 AM 75.1°F23.9°C 73.9°F23.3°C 96% 0.1 mph SSE0.2 kmh SSE 1.0 mph1.6 kmh 30.04 in1017.3 mb - 0.00 in0.0 mm 0.00 in0.0 mm
12:15 AM 75.1°F23.9°C 73.9°F23.3°C 96% Calm Calm -- 30.04 in1017.3 mb - 0.00 in0.0 mm 0.00 in0.0 mm
12:30 AM 75.1°F23.9°C 73.8°F23.2°C 96% Calm Calm -- 30.05 in1017.6 mb - 0.00 in0.0 mm 0.00 in0.0 mm
12:45 AM 74.9°F23.8°C 73.7°F23.2°C 96% 0.1 mph ESE0.2 kmh ESE -- 30.06 in1017.9 mb - 0.00 in0.0 mm 0.00 in0.0 mm
01:00 AM 74.8°F23.8°C 73.6°F23.1°C 96% Calm Calm -- 30.05 in1017.6 mb - 0.00 in0.0 mm 0.00 in0.0 mm
01:15 AM 74.8°F23.8°C 73.6°F23.1°C 96% Calm Calm -- 30.05 in1017.6 mb - 0.00 in0.0 mm 0.00 in0.0 mm
01:30 AM 74.8°F23.8°C 73.6°F23.1°C 96% Calm Calm -- 30.04 in1017.3 mb - 0.00 in0.0 mm 0.00 in0.0 mm
01:45 AM 74.6°F23.7°C 73.4°F23.0°C 96% Calm Calm -- 30.04 in1017.3 mb - 0.00 in0.0 mm 0.00 in0.0 mm
02:00 AM 74.4°F23.6°C 73.2°F22.9°C 96% Calm Calm -- 30.03 in1016.9 mb - 0.00 in0.0 mm 0.00 in0.0 mm
02:15 AM 74.2°F23.4°C 73.0°F22.8°C 96% Calm Calm -- 30.02 in1016.6 mb - 0.00 in0.0 mm 0.00 in0.0 mm
02:30 AM 74.0°F23.3°C 72.8°F22.7°C 96% Calm Calm -- 30.02 in1016.6 mb - 0.00 in0.0 mm 0.00 in0.0 mm
02:45 AM 74.3°F23.5°C 73.4°F23.0°C 97% 0.3 mph ESE0.5 kmh ESE 1.0 mph1.6 kmh 30.02 in1016.6 mb - 0.00 in0.0 mm 0.00 in0.0 mm
03:00 AM 74.8°F23.8°C 73.9°F23.3°C 97% 0.2 mph SE0.3 kmh SE 1.0 mph1.6 kmh 30.03 in1016.9 mb - 0.00 in0.0 mm 0.00 in0.0 mm
03:15 AM 75.2°F24.0°C 74.3°F23.5°C 97% 0.2 mph SSW0.3 kmh SSW 1.0 mph1.6 kmh 30.04 in1017.3 mb - 0.00 in0.0 mm 0.00 in0.0 mm
03:30 AM 75.3°F24.1°C 74.4°F23.6°C 97% 0.7 mph ESE1.1 kmh ESE 2.0 mph3.2 kmh 30.04 in1017.3 mb - 0.00 in0.0 mm 0.00 in0.0 mm
03:45 AM 75.2°F24.0°C 74.3°F23.5°C 97% 0.1 mph SSE0.2 kmh SSE -- 30.04 in1017.3 mb - 0.00 in0.0 mm 0.00 in0.0 mm
04:00 AM 75.0°F23.9°C 74.1°F23.4°C 97% Calm Calm 1.0 mph1.6 kmh 30.04 in1017.3 mb - 0.00 in0.0 mm 0.00 in0.0 mm
04:15 AM 74.8°F23.8°C 73.9°F23.3°C 97% 0.1 mph SE0.2 kmh SE 3.0 mph4.8 kmh 30.05 in1017.6 mb - 0.00 in0.0 mm 0.00 in0.0 mm
04:30 AM 74.7°F23.7°C 73.8°F23.2°C 97% Calm Calm -- 30.05 in1017.6 mb - 0.00 in0.0 mm 0.00 in0.0 mm
04:45 AM 74.6°F23.7°C 73.7°F23.2°C 97% Calm Calm -- 30.04 in1017.3 mb - 0.00 in0.0 mm 0.00 in0.0 mm
05:00 AM 74.7°F23.7°C 73.8°F23.2°C 97% Calm Calm -- 30.04 in1017.3 mb - 0.00 in0.0 mm 0.00 in0.0 mm
05:15 AM 74.7°F23.7°C 73.8°F23.2°C 97% Calm Calm -- 30.05 in1017.6 mb - 0.00 in0.0 mm 0.00 in0.0 mm
05:30 AM 74.6°F23.7°C 73.7°F23.2°C 97% Calm Calm -- 30.05 in1017.6 mb - 0.00 in0.0 mm 0.00 in0.0 mm
05:45 AM 74.6°F23.7°C 73.7°F23.2°C 97% Calm Calm -- 30.05 in1017.6 mb - 0.00 in0.0 mm 0.00 in0.0 mm
06:00 AM 74.8°F23.8°C 73.9°F23.3°C 97% 1.5 mph S2.4 kmh S 2.0 mph3.2 kmh 30.05 in1017.6 mb - 0.00 in0.0 mm 0.00 in0.0 mm
06:15 AM 74.9°F23.8°C 74.0°F23.3°C 97% Calm Calm 1.0 mph1.6 kmh 30.06 in1017.9 mb - 0.00 in0.0 mm 0.00 in0.0 mm
06:30 AM 75.0°F23.9°C 74.1°F23.4°C 97% 0.1 mph E0.2 kmh E 2.0 mph3.2 kmh 30.07 in1018.3 mb - 0.00 in0.0 mm 0.00 in0.0 mm
06:45 AM 75.1°F23.9°C 74.2°F23.4°C 97% 1.5 mph SW2.4 kmh SW 3.0 mph4.8 kmh 30.07 in1018.3 mb - 0.00 in0.0 mm 0.00 in0.0 mm
07:00 AM 75.2°F24.0°C 74.3°F23.5°C 97% 0.1 mph ESE0.2 kmh ESE 1.0 mph1.6 kmh 30.08 in1018.6 mb - 0.00 in0.0 mm 0.00 in0.0 mm
07:15 AM 75.1°F23.9°C 74.2°F23.4°C 97% Calm Calm 1.0 mph1.6 kmh 30.08 in1018.6 mb - 0.00 in0.0 mm 0.00 in0.0 mm
07:30 AM 75.5°F24.2°C 74.3°F23.5°C 96% Calm Calm 1.0 mph1.6 kmh 30.08 in1018.6 mb - 0.00 in0.0 mm 0.00 in0.0 mm
07:45 AM 76.7°F24.8°C 74.9°F23.8°C 94% 2.5 mph S4.0 kmh S 5.0 mph8.0 kmh 30.09 in1019.0 mb - 0.00 in0.0 mm 0.00 in0.0 mm
08:00 AM 78.2°F25.7°C 74.4°F23.6°C 88% 0.9 mph S1.4 kmh S 2.0 mph3.2 kmh 30.09 in1019.0 mb - 0.00 in0.0 mm 0.00 in0.0 mm
08:15 AM 79.7°F26.5°C 74.5°F23.6°C 84% 1.2 mph ENE1.9 kmh ENE 2.0 mph3.2 kmh 30.09 in1019.0 mb - 0.00 in0.0 mm 0.00 in0.0 mm
08:30 AM 80.9°F27.2°C 74.5°F23.6°C 81% 1.9 mph SSW3.1 kmh SSW 4.0 mph6.4 kmh 30.09 in1019.0 mb - 0.00 in0.0 mm 0.00 in0.0 mm
08:45 AM 81.8°F27.7°C 75.0°F23.9°C 80% 0.8 mph WSW1.3 kmh WSW 5.0 mph8.0 kmh 30.09 in1019.0 mb - 0.00 in0.0 mm 0.00 in0.0 mm
09:00 AM 82.5°F28.1°C 74.2°F23.4°C 76% 1.4 mph S2.3 kmh S 3.0 mph4.8 kmh 30.09 in1019.0 mb - 0.00 in0.0 mm 0.00 in0.0 mm
09:15 AM 83.2°F28.4°C 74.8°F23.8°C 76% 1.9 mph ESE3.1 kmh ESE 2.0 mph3.2 kmh 30.09 in1019.0 mb - 0.00 in0.0 mm 0.00 in0.0 mm
09:30 AM 83.4°F28.6°C 73.0°F22.8°C 71% 0.2 mph ESE0.3 kmh ESE -- 30.09 in1019.0 mb - 0.00 in0.0 mm 0.00 in0.0 mm
09:45 AM 84.3°F29.1°C 73.8°F23.2°C 71% 2.5 mph S4.0 kmh S 5.0 mph8.0 kmh 30.09 in1019.0 mb - 0.00 in0.0 mm 0.00 in0.0 mm
10:00 AM 85.0°F29.4°C 73.7°F23.2°C 69% 1.2 mph SE1.9 kmh SE 2.0 mph3.2 kmh 30.09 in1019.0 mb - 0.00 in0.0 mm 0.00 in0.0 mm
10:15 AM 85.7°F29.8°C 74.8°F23.8°C 70% 1.0 mph SW1.6 kmh SW 2.0 mph3.2 kmh 30.09 in1019.0 mb - 0.00 in0.0 mm 0.00 in0.0 mm
10:30 AM 86.5°F30.3°C 73.8°F23.2°C 66% 1.6 mph S2.6 kmh S 4.0 mph6.4 kmh 30.09 in1019.0 mb - 0.00 in0.0 mm 0.00 in0.0 mm
10:45 AM 87.0°F30.6°C 77.2°F25.1°C 73% 1.8 mph SE2.9 kmh SE 3.0 mph4.8 kmh 30.09 in1019.0 mb - 0.00 in0.0 mm 0.00 in0.0 mm
11:00 AM 87.5°F30.8°C 76.9°F24.9°C 71% 1.0 mph ESE1.6 kmh ESE 1.0 mph1.6 kmh 30.09 in1019.0 mb - 0.00 in0.0 mm 0.00 in0.0 mm
11:15 AM 87.7°F30.9°C 74.5°F23.6°C 65% 1.6 mph WSW2.6 kmh WSW 1.0 mph1.6 kmh 30.09 in1019.0 mb - 0.00 in0.0 mm 0.00 in0.0 mm
11:30 AM 87.9°F31.1°C 76.0°F24.4°C 68% 1.9 mph SSW3.1 kmh SSW 7.0 mph11.3 kmh 30.09 in1019.0 mb - 0.00 in0.0 mm 0.00 in0.0 mm
11:45 AM 88.6°F31.4°C 77.6°F25.3°C 70% 0.8 mph SE1.3 kmh SE 4.0 mph6.4 kmh 30.09 in1019.0 mb - 0.00 in0.0 mm 0.00 in0.0 mm
12:00 PM 88.3°F31.3°C 79.0°F26.1°C 74% 0.5 mph E0.8 kmh E 1.0 mph1.6 kmh 30.09 in1019.0 mb - 0.00 in0.0 mm 0.00 in0.0 mm
12:15 PM 88.5°F31.4°C 75.2°F24.0°C 65% 1.4 mph S2.3 kmh S 2.0 mph3.2 kmh 30.09 in1019.0 mb - 0.00 in0.0 mm 0.00 in0.0 mm
12:30 PM 89.5°F31.9°C 76.7°F24.8°C 66% 1.3 mph ESE2.1 kmh ESE 2.0 mph3.2 kmh 30.09 in1019.0 mb - 0.00 in0.0 mm 0.00 in0.0 mm
12:45 PM 89.4°F31.9°C 77.4°F25.2°C 68% 1.7 mph SE2.7 kmh SE 3.0 mph4.8 kmh 30.09 in1019.0 mb - 0.00 in0.0 mm 0.00 in0.0 mm
01:00 PM 89.3°F31.8°C 75.5°F24.2°C 64% 1.8 mph ESE2.9 kmh ESE 2.0 mph3.2 kmh 30.09 in1019.0 mb - 0.00 in0.0 mm 0.00 in0.0 mm
01:15 PM 89.0°F31.7°C 77.9°F25.5°C 70% 2.0 mph SE3.2 kmh SE 3.0 mph4.8 kmh 30.09 in1019.0 mb - 0.00 in0.0 mm 0.00 in0.0 mm
01:30 PM 89.5°F31.9°C 77.5°F25.3°C 68% 2.0 mph S3.2 kmh S 5.0 mph8.0 kmh 30.08 in1018.6 mb - 0.00 in0.0 mm 0.00 in0.0 mm
01:45 PM 89.5°F31.9°C 76.2°F24.6°C 65% 2.3 mph ESE3.7 kmh ESE 6.0 mph9.7 kmh 30.07 in1018.3 mb - 0.00 in0.0 mm 0.00 in0.0 mm
02:00 PM 89.7°F32.1°C 75.9°F24.4°C 64% 2.1 mph ESE3.4 kmh ESE 6.0 mph9.7 kmh 30.07 in1018.3 mb - 0.00 in0.0 mm 0.00 in0.0 mm
02:15 PM 89.5°F31.9°C 76.7°F24.8°C 66% 2.9 mph SSE4.7 kmh SSE 7.0 mph11.3 kmh 30.07 in1018.3 mb - 0.00 in0.0 mm 0.00 in0.0 mm
02:30 PM 89.7°F32.1°C 77.7°F25.4°C 68% 5.0 mph SW8.0 kmh SW 9.0 mph14.5 kmh 30.07 in1018.3 mb - 0.00 in0.0 mm 0.00 in0.0 mm
02:45 PM 88.7°F31.5°C 76.8°F24.9°C 68% 1.3 mph SW2.1 kmh SW 2.0 mph3.2 kmh 30.06 in1017.9 mb - 0.00 in0.0 mm 0.00 in0.0 mm
03:00 PM 89.3°F31.8°C 78.2°F25.7°C 70% 0.6 mph SE1.0 kmh SE 4.0 mph6.4 kmh 30.06 in1017.9 mb - 0.00 in0.0 mm 0.00 in0.0 mm
03:15 PM 89.7°F32.1°C 78.6°F25.9°C 70% 2.0 mph S3.2 kmh S 8.0 mph12.9 kmh 30.06 in1017.9 mb - 0.00 in0.0 mm 0.00 in0.0 mm
03:30 PM 88.5°F31.4°C 77.4°F25.2°C 70% 1.2 mph S1.9 kmh S 4.0 mph6.4 kmh 30.06 in1017.9 mb - 0.00 in0.0 mm 0.00 in0.0 mm
03:45 PM 87.2°F30.7°C 76.6°F24.8°C 71% 2.7 mph SE4.3 kmh SE 15.0 mph24.1 kmh 30.07 in1018.3 mb - 0.00 in0.0 mm 0.00 in0.0 mm
04:00 PM 86.0°F30.0°C 76.8°F24.9°C 74% 2.0 mph SE3.2 kmh SE 6.0 mph9.7 kmh 30.06 in1017.9 mb - 0.00 in0.0 mm 0.00 in0.0 mm
04:15 PM 85.8°F29.9°C 77.4°F25.2°C 76% 1.2 mph SE1.9 kmh SE 4.0 mph6.4 kmh 30.05 in1017.6 mb - 0.00 in0.0 mm 0.00 in0.0 mm
04:30 PM 85.5°F29.7°C 77.1°F25.1°C 76% 2.3 mph E3.7 kmh E 10.0 mph16.1 kmh 30.05 in1017.6 mb - 0.00 in0.0 mm 0.00 in0.0 mm
04:45 PM 85.0°F29.4°C 77.0°F25.0°C 77% 0.1 mph S0.2 kmh S 1.0 mph1.6 kmh 30.05 in1017.6 mb - 0.00 in0.0 mm 0.00 in0.0 mm
05:00 PM 84.7°F29.3°C 77.0°F25.0°C 78% Calm Calm -- 30.05 in1017.6 mb - 0.00 in0.0 mm 0.00 in0.0 mm
05:15 PM 84.7°F29.3°C 77.1°F25.1°C 78% 0.2 mph SE0.3 kmh SE 1.0 mph1.6 kmh 30.06 in1017.9 mb - 0.00 in0.0 mm 0.00 in0.0 mm
05:30 PM 84.4°F29.1°C 76.4°F24.7°C 77% 3.1 mph SW5.0 kmh SW 6.0 mph9.7 kmh 30.06 in1017.9 mb - 0.00 in0.0 mm 0.00 in0.0 mm
05:45 PM 83.8°F28.8°C 75.8°F24.3°C 77% 0.2 mph SE0.3 kmh SE 5.0 mph8.0 kmh 30.06 in1017.9 mb - 0.00 in0.0 mm 0.00 in0.0 mm
06:00 PM 83.1°F28.4°C 75.9°F24.4°C 79% 1.7 mph SE2.7 kmh SE 4.0 mph6.4 kmh 30.06 in1017.9 mb - 0.00 in0.0 mm 0.00 in0.0 mm
06:15 PM 82.7°F28.2°C 76.3°F24.6°C 81% 0.4 mph SW0.6 kmh SW 1.0 mph1.6 kmh 30.06 in1017.9 mb - 0.00 in0.0 mm 0.00 in0.0 mm
06:30 PM 82.1°F27.8°C 75.7°F24.3°C 81% 0.1 mph SW0.2 kmh SW -- 30.06 in1017.9 mb - 0.00 in0.0 mm 0.00 in0.0 mm
06:45 PM 82.1°F27.8°C 76.4°F24.7°C 83% Calm Calm -- 30.07 in1018.3 mb - 0.00 in0.0 mm 0.00 in0.0 mm
07:00 PM 82.0°F27.8°C 76.3°F24.6°C 83% Calm Calm 1.0 mph1.6 kmh 30.08 in1018.6 mb - 0.00 in0.0 mm 0.00 in0.0 mm
07:15 PM 81.7°F27.6°C 75.7°F24.3°C 82% 0.2 mph SW0.3 kmh SW -- 30.08 in1018.6 mb - 0.00 in0.0 mm 0.00 in0.0 mm
07:30 PM 81.3°F27.4°C 75.6°F24.2°C 83% 0.4 mph SSW0.6 kmh SSW -- 30.09 in1019.0 mb - 0.00 in0.0 mm 0.00 in0.0 mm
07:45 PM 80.8°F27.1°C 75.5°F24.2°C 84% Calm Calm -- 30.10 in1019.3 mb - 0.00 in0.0 mm 0.00 in0.0 mm
08:00 PM 80.1°F26.7°C 75.2°F24.0°C 85% Calm Calm -- 30.10 in1019.3 mb - 0.00 in0.0 mm 0.00 in0.0 mm
08:15 PM 79.4°F26.3°C 75.2°F24.0°C 87% Calm Calm -- 30.10 in1019.3 mb - 0.00 in0.0 mm 0.00 in0.0 mm
08:30 PM 78.4°F25.8°C 74.9°F23.8°C 89% Calm Calm -- 30.11 in1019.6 mb - 0.00 in0.0 mm 0.00 in0.0 mm
08:45 PM 77.8°F25.4°C 74.3°F23.5°C 89% Calm Calm -- 30.11 in1019.6 mb - 0.00 in0.0 mm 0.00 in0.0 mm
09:00 PM 77.4°F25.2°C 74.2°F23.4°C 90% Calm Calm -- 30.11 in1019.6 mb - 0.00 in0.0 mm 0.00 in0.0 mm
09:15 PM 77.0°F25.0°C 74.2°F23.4°C 91% Calm Calm -- 30.11 in1019.6 mb - 0.00 in0.0 mm 0.00 in0.0 mm
09:30 PM 76.8°F24.9°C 74.3°F23.5°C 92% Calm Calm -- 30.11 in1019.6 mb - 0.00 in0.0 mm 0.00 in0.0 mm
09:45 PM 76.7°F24.8°C 74.5°F23.6°C 93% Calm Calm -- 30.11 in1019.6 mb - 0.00 in0.0 mm 0.00 in0.0 mm
10:00 PM 76.7°F24.8°C 74.5°F23.6°C 93% Calm Calm -- 30.11 in1019.6 mb - 0.00 in0.0 mm 0.00 in0.0 mm
10:15 PM 76.5°F24.7°C 74.3°F23.5°C 93% Calm Calm -- 30.11 in1019.6 mb - 0.00 in0.0 mm 0.00 in0.0 mm
10:30 PM 76.3°F24.6°C 74.1°F23.4°C 93% Calm Calm -- 30.11 in1019.6 mb - 0.00 in0.0 mm 0.00 in0.0 mm
10:45 PM 76.0°F24.4°C 73.9°F23.3°C 93% Calm Calm -- 30.12 in1020.0 mb - 0.00 in0.0 mm 0.00 in0.0 mm
11:00 PM 75.8°F24.3°C 73.9°F23.3°C 94% Calm Calm -- 30.12 in1020.0 mb - 0.00 in0.0 mm 0.00 in0.0 mm
11:15 PM 75.7°F24.3°C 73.8°F23.2°C 94% Calm Calm -- 30.12 in1020.0 mb - 0.00 in0.0 mm 0.00 in0.0 mm
11:30 PM 75.7°F24.3°C 74.2°F23.4°C 95% Calm Calm -- 30.13 in1020.3 mb - 0.00 in0.0 mm 0.00 in0.0 mm
11:45 PM 75.8°F24.3°C 74.3°F23.5°C 95% Calm Calm 1.0 mph1.6 kmh 30.13 in1020.3 mb - 0.00 in0.0 mm 0.00 in0.0 mm